createdAt,value
2022-10-15T00:02:03.951Z,61.45
2022-10-15T00:04:31.244Z,58.30
2022-10-15T00:06:57.841Z,60.08
2022-10-15T00:09:24.313Z,62.20
2022-10-15T00:11:51.432Z,58.55
2022-10-15T00:14:18.323Z,60.78
2022-10-15T00:16:45.008Z,65.38
2022-10-15T00:19:11.559Z,61.80
2022-10-15T00:21:38.788Z,64.95
2022-10-15T00:24:05.625Z,67.50
2022-10-15T00:26:32.145Z,62.67
2022-10-15T00:29:04.256Z,62.80
2022-10-15T00:31:32.430Z,60.22
2022-10-15T00:34:00.418Z,61.85
2022-10-15T00:36:30.159Z,62.28
2022-10-15T00:38:57.206Z,64.15
2022-10-15T00:41:33.438Z,65.00
2022-10-15T00:44:00.987Z,63.63
2022-10-15T00:46:30.286Z,64.05
2022-10-15T00:49:12.392Z,62.17
2022-10-15T00:51:44.641Z,63.92
2022-10-15T00:54:12.788Z,56.55
2022-10-15T00:56:41.454Z,57.00
2022-10-15T00:59:09.662Z,57.42
2022-10-15T01:01:36.158Z,60.13
2022-10-15T01:04:03.018Z,60.03
2022-10-15T01:06:29.660Z,57.65
2022-10-15T01:08:56.839Z,56.72
2022-10-15T01:11:41.512Z,60.45
2022-10-15T01:14:32.650Z,62.55
2022-10-15T01:17:07.914Z,63.22
2022-10-15T01:20:21.904Z,60.65
2022-10-15T01:23:12.832Z,61.33
2022-10-15T01:25:47.944Z,63.38
2022-10-15T01:28:35.639Z,61.65
2022-10-15T01:31:26.684Z,63.67
2022-10-15T01:34:02.661Z,60.40
2022-10-15T01:36:39.380Z,60.20
2022-10-15T01:39:31.998Z,66.45
2022-10-15T01:42:03.744Z,59.30
2022-10-15T01:44:42.836Z,63.30
2022-10-15T01:47:29.721Z,64.75
2022-10-15T01:49:57.848Z,65.05
2022-10-15T01:52:28.788Z,70.97
2022-10-15T01:54:55.858Z,66.70
2022-10-15T01:57:26.110Z,66.20
2022-10-15T01:59:54.116Z,67.45
2022-10-15T02:02:20.865Z,67.25
2022-10-15T02:04:47.600Z,67.50
2022-10-15T02:07:53.541Z,66.93
2022-10-15T02:13:24.660Z,65.03
2022-10-15T02:16:03.112Z,66.50
2022-10-15T02:18:42.177Z,59.03
2022-10-15T02:21:28.833Z,61.88
2022-10-15T02:24:10.269Z,65.40
2022-10-15T02:26:38.829Z,62.13
2022-10-15T02:29:07.821Z,64.18
2022-10-15T02:31:37.653Z,64.68
2022-10-15T02:34:07.891Z,66.70
2022-10-15T02:36:35.455Z,65.95
2022-10-15T02:39:04.456Z,65.35
2022-10-15T02:41:30.896Z,60.30
2022-10-15T02:43:57.401Z,66.45
2022-10-15T02:46:23.869Z,62.97
2022-10-15T02:48:50.286Z,62.78
2022-10-15T02:51:16.735Z,61.72
2022-10-15T02:53:43.188Z,64.13
2022-10-15T02:56:09.616Z,62.72
2022-10-15T02:58:36.042Z,63.55
2022-10-15T03:01:02.627Z,62.90
2022-10-15T03:03:29.091Z,62.05
2022-10-15T03:05:55.739Z,61.78
2022-10-15T03:08:22.393Z,58.90
2022-10-15T03:10:48.852Z,67.10
2022-10-15T03:13:15.288Z,65.97
2022-10-15T03:15:41.781Z,63.00
2022-10-15T03:18:08.592Z,61.05
2022-10-15T03:20:35.189Z,65.65
2022-10-15T03:23:02.027Z,58.97
2022-10-15T03:25:28.443Z,61.85
2022-10-15T03:27:54.923Z,62.50
2022-10-15T03:30:21.449Z,58.30
2022-10-15T03:32:48.346Z,58.90
2022-10-15T03:35:14.980Z,58.25
2022-10-15T03:37:41.459Z,64.30
2022-10-15T03:40:13.458Z,61.90
2022-10-15T03:42:41.199Z,60.47
2022-10-15T03:45:08.436Z,63.08
2022-10-15T03:47:34.852Z,65.43
2022-10-15T03:50:01.304Z,63.25
2022-10-15T03:52:27.748Z,61.17
2022-10-15T03:54:54.165Z,58.85
2022-10-15T03:57:20.614Z,62.20
2022-10-15T03:59:47.027Z,62.22
2022-10-15T04:02:13.490Z,60.70
2022-10-15T04:04:40.132Z,58.92
2022-10-15T04:07:06.604Z,60.25
2022-10-15T04:09:33.011Z,63.65
2022-10-15T04:11:59.439Z,62.75
2022-10-15T04:14:25.994Z,62.95
2022-10-15T04:16:52.397Z,58.35
2022-10-15T04:19:18.809Z,61.17
2022-10-15T04:21:45.199Z,64.15
2022-10-15T04:24:11.648Z,63.70
2022-10-15T04:26:38.291Z,61.17
2022-10-15T04:29:05.143Z,64.22
2022-10-15T04:31:31.773Z,60.17
2022-10-15T04:33:58.214Z,60.78
2022-10-15T04:36:24.817Z,61.88
2022-10-15T04:38:52.630Z,64.38
2022-10-15T04:41:19.038Z,63.03
2022-10-15T04:43:45.550Z,61.80
2022-10-15T04:46:12.373Z,58.47
2022-10-15T04:48:42.208Z,63.25
2022-10-15T04:51:13.881Z,64.10
2022-10-15T04:53:40.540Z,60.85
2022-10-15T04:56:08.893Z,62.80
2022-10-15T04:58:36.261Z,62.28
2022-10-15T05:01:07.653Z,65.03
2022-10-15T05:03:36.575Z,62.45
2022-10-15T05:06:08.308Z,63.95
2022-10-15T05:08:36.062Z,60.30
2022-10-15T05:11:07.975Z,63.88
2022-10-15T05:13:34.901Z,66.35
2022-10-15T05:16:13.396Z,60.53
2022-10-15T05:18:40.276Z,64.30
2022-10-15T05:21:07.432Z,62.53
2022-10-15T05:23:33.972Z,68.68
2022-10-15T05:26:02.065Z,65.38
2022-10-15T05:28:29.311Z,68.25
2022-10-15T05:30:56.281Z,62.72
2022-10-15T05:33:22.795Z,63.15
2022-10-15T05:35:49.240Z,62.33
2022-10-15T05:38:15.776Z,64.28
2022-10-15T05:40:48.000Z,62.88
2022-10-15T05:43:14.463Z,63.70
2022-10-15T05:45:40.951Z,60.20
2022-10-15T05:48:07.757Z,62.38
2022-10-15T05:50:34.196Z,68.97
2022-10-15T05:53:00.589Z,64.72
2022-10-15T05:55:26.979Z,61.47
2022-10-15T05:57:53.359Z,61.45
2022-10-15T06:00:19.858Z,63.03
2022-10-15T06:02:47.628Z,64.20
2022-10-15T06:05:14.187Z,64.80
2022-10-15T06:07:40.579Z,64.25
2022-10-15T06:10:07.648Z,62.75
2022-10-15T06:12:34.526Z,63.63
2022-10-15T06:15:01.020Z,61.80
2022-10-15T06:17:27.444Z,62.03
2022-10-15T06:19:53.855Z,64.70
2022-10-15T06:22:20.267Z,62.35
2022-10-15T06:24:46.677Z,63.55
2022-10-15T06:27:13.869Z,68.10
2022-10-15T06:29:40.588Z,63.72
2022-10-15T06:32:11.704Z,64.18
2022-10-15T06:34:38.199Z,61.55
2022-10-15T06:37:04.621Z,70.10
2022-10-15T06:39:31.022Z,65.50
2022-10-15T06:41:57.448Z,63.58
2022-10-15T06:44:24.768Z,66.63
2022-10-15T06:46:51.205Z,64.13
2022-10-15T06:49:17.614Z,61.90
2022-10-15T06:51:44.120Z,67.45
2022-10-15T06:54:10.534Z,68.22
2022-10-15T06:56:36.949Z,63.85
2022-10-15T06:59:05.316Z,69.35
2022-10-15T07:01:31.885Z,65.05
2022-10-15T07:03:58.286Z,71.45
2022-10-15T07:06:25.579Z,67.93
2022-10-15T07:08:51.969Z,66.10
2022-10-15T07:11:18.429Z,65.95
2022-10-15T07:13:44.836Z,70.22
2022-10-15T07:16:12.621Z,67.97
2022-10-15T07:18:40.022Z,71.05
2022-10-15T07:21:08.433Z,66.40
2022-10-15T07:23:35.109Z,71.97
2022-10-15T07:26:02.079Z,67.95
2022-10-15T07:28:28.604Z,74.28
2022-10-15T07:30:55.089Z,71.63
2022-10-15T07:33:21.577Z,69.38
2022-10-15T07:35:48.307Z,91.95
2022-10-15T07:38:14.724Z,74.07
2022-10-15T07:40:41.162Z,72.03
2022-10-15T07:43:07.574Z,74.22
2022-10-15T07:45:34.086Z,70.25
2022-10-15T07:48:00.509Z,73.13
2022-10-15T07:50:29.299Z,70.15
2022-10-15T07:52:58.747Z,68.75
2022-10-15T07:55:25.201Z,69.90
2022-10-15T07:57:51.603Z,71.85
2022-10-15T08:00:18.240Z,74.50
2022-10-15T08:02:45.437Z,71.32
2022-10-15T08:05:11.871Z,68.53
2022-10-15T08:07:38.302Z,71.75
2022-10-15T08:10:06.352Z,64.90
2022-10-15T08:12:32.779Z,72.50
2022-10-15T08:14:59.345Z,71.50
2022-10-15T08:17:25.756Z,74.63
2022-10-15T08:19:52.209Z,76.80
2022-10-15T08:22:18.664Z,77.25
2022-10-15T08:24:45.101Z,78.68
2022-10-15T08:27:11.557Z,72.53
2022-10-15T08:29:37.998Z,74.78
2022-10-15T08:32:04.563Z,76.90
2022-10-15T08:34:30.980Z,74.57
2022-10-15T08:36:57.364Z,72.10
2022-10-15T08:39:23.776Z,75.63
2022-10-15T08:41:54.837Z,76.72
2022-10-15T08:44:31.388Z,75.57
2022-10-15T08:47:27.145Z,77.22
2022-10-15T08:50:02.753Z,77.82
2022-10-15T08:52:43.149Z,72.60
2022-10-15T08:55:13.083Z,75.33
2022-10-15T08:58:02.021Z,69.55
2022-10-15T09:00:42.197Z,72.63
2022-10-15T09:03:29.342Z,74.15
2022-10-15T09:06:20.719Z,74.15
2022-10-15T09:11:35.633Z,70.70
2022-10-15T09:14:05.348Z,74.10
2022-10-15T09:16:38.892Z,73.32
2022-10-15T09:19:14.730Z,69.38
2022-10-15T09:21:41.397Z,73.88
2022-10-15T09:24:11.670Z,75.70
2022-10-15T09:27:10.539Z,71.33
2022-10-15T09:29:46.665Z,70.03
2022-10-15T09:32:23.567Z,70.22
2022-10-15T09:35:22.177Z,73.60
2022-10-15T09:38:03.466Z,71.40
2022-10-15T09:41:16.148Z,71.47
2022-10-15T09:43:46.712Z,73.85
2022-10-15T09:46:13.344Z,70.45
2022-10-15T09:48:52.638Z,74.53
2022-10-15T09:51:21.918Z,73.15
2022-10-15T09:54:10.116Z,73.15
2022-10-15T09:56:39.477Z,70.45
2022-10-15T09:59:08.809Z,66.22
2022-10-15T10:01:36.088Z,68.93
2022-10-15T10:04:14.288Z,67.57
2022-10-15T10:06:53.863Z,67.40
2022-10-15T10:09:23.483Z,68.25
2022-10-15T10:12:00.675Z,69.07
2022-10-15T10:14:39.230Z,66.15
2022-10-15T10:17:18.610Z,71.22
2022-10-15T10:20:01.970Z,67.72
2022-10-15T10:22:28.841Z,112.43
2022-10-15T10:24:55.388Z,69.95
2022-10-15T10:27:29.188Z,72.72
2022-10-15T10:30:07.454Z,64.75
2022-10-15T10:32:35.203Z,71.38
2022-10-15T10:35:03.980Z,68.57
2022-10-15T10:37:42.504Z,67.05
2022-10-15T10:40:30.309Z,74.15
2022-10-15T10:43:16.468Z,73.85
2022-10-15T10:46:04.392Z,72.55
2022-10-15T10:48:43.119Z,67.85
2022-10-15T10:51:19.696Z,73.32
2022-10-15T10:53:51.051Z,76.00
2022-10-15T10:56:22.396Z,68.78
2022-10-15T10:58:55.420Z,75.13
2022-10-15T11:01:21.990Z,69.22
2022-10-15T11:03:49.337Z,76.22
2022-10-15T11:06:46.358Z,73.85
2022-10-15T11:09:34.515Z,77.88
2022-10-15T11:12:28.954Z,90.90
2022-10-15T11:15:17.518Z,74.22
2022-10-15T11:17:56.862Z,77.28
2022-10-15T11:20:53.086Z,74.65
2022-10-15T11:23:46.140Z,69.63
2022-10-15T11:26:51.474Z,71.57
2022-10-15T11:29:35.769Z,71.28
2022-10-15T11:32:26.004Z,67.90
2022-10-15T11:35:20.206Z,70.10
2022-10-15T11:38:19.211Z,65.88
2022-10-15T11:41:11.356Z,68.78
2022-10-15T11:44:02.589Z,66.07
2022-10-15T11:46:44.156Z,68.43
2022-10-15T11:49:52.024Z,65.95
2022-10-15T11:52:27.795Z,65.90
2022-10-15T11:55:16.004Z,65.53
2022-10-15T11:57:44.275Z,65.25
2022-10-15T12:00:20.410Z,66.50
2022-10-15T12:02:49.412Z,65.68
2022-10-15T12:05:27.822Z,63.65
2022-10-15T12:07:55.705Z,64.20
2022-10-15T12:10:47.773Z,63.17
2022-10-15T12:13:56.122Z,62.42
2022-10-15T12:16:28.468Z,60.45
2022-10-15T12:19:32.471Z,57.15
2022-10-15T12:21:58.818Z,59.08
2022-10-15T12:24:37.425Z,57.13
2022-10-15T12:27:19.010Z,58.35
2022-10-15T12:29:51.055Z,55.20
2022-10-15T12:32:25.948Z,57.65
2022-10-15T12:34:57.889Z,56.47
2022-10-15T12:37:27.698Z,59.28
2022-10-15T12:39:57.262Z,55.92
2022-10-15T12:42:37.629Z,57.30
2022-10-15T12:45:17.488Z,59.08
2022-10-15T12:47:54.648Z,56.03
2022-10-15T12:50:29.996Z,55.47
2022-10-15T12:53:06.415Z,57.90
2022-10-15T12:55:35.443Z,55.13
2022-10-15T12:58:35.000Z,57.95
2022-10-15T13:01:13.623Z,56.53
2022-10-15T13:03:51.852Z,57.88
2022-10-15T13:06:21.286Z,53.05
2022-10-15T13:08:51.555Z,51.13
2022-10-15T13:11:23.936Z,63.78
2022-10-15T13:13:56.386Z,55.20
2022-10-15T13:16:23.068Z,57.92
2022-10-15T13:18:52.169Z,54.35
2022-10-15T13:21:18.666Z,58.75
2022-10-15T13:23:50.047Z,56.10
2022-10-15T13:26:26.898Z,54.17
2022-10-15T13:28:57.270Z,56.40
2022-10-15T13:31:36.965Z,54.85
2022-10-15T13:34:22.124Z,54.38
2022-10-15T13:36:49.820Z,57.05
2022-10-15T13:39:27.190Z,57.25
2022-10-15T13:42:05.906Z,55.85
2022-10-15T13:44:32.433Z,57.90
2022-10-15T13:46:58.935Z,61.13
2022-10-15T13:49:28.067Z,59.35
2022-10-15T13:51:55.840Z,56.47
2022-10-15T13:54:31.395Z,58.47
2022-10-15T13:57:01.718Z,55.08
2022-10-15T13:59:30.756Z,57.40
2022-10-15T14:02:01.148Z,57.83
2022-10-15T14:04:30.410Z,60.97
2022-10-15T14:07:03.282Z,57.72
2022-10-15T14:09:36.251Z,57.08
2022-10-15T14:12:06.343Z,58.53
2022-10-15T14:14:35.802Z,56.13
2022-10-15T14:17:16.917Z,57.88
2022-10-15T14:20:02.194Z,57.50
2022-10-15T14:22:36.848Z,56.40
2022-10-15T14:25:10.222Z,56.47
2022-10-15T14:27:36.777Z,57.50
2022-10-15T14:30:26.313Z,59.83
2022-10-15T14:32:52.806Z,58.75
2022-10-15T14:35:32.796Z,56.35
2022-10-15T14:38:05.076Z,58.45
2022-10-15T14:40:31.652Z,58.03
2022-10-15T14:43:03.633Z,54.60
2022-10-15T14:45:39.460Z,52.60
2022-10-15T14:48:19.189Z,60.75
2022-10-15T14:50:46.137Z,55.88
2022-10-15T14:53:19.992Z,55.42
2022-10-15T14:56:15.594Z,57.38
2022-10-15T14:58:51.936Z,55.22
2022-10-15T15:01:20.131Z,53.25
2022-10-15T15:03:55.583Z,53.38
2022-10-15T15:06:21.989Z,56.25
2022-10-15T15:08:48.528Z,56.50
2022-10-15T15:11:20.463Z,52.40
2022-10-15T15:13:47.953Z,52.03
2022-10-15T15:16:16.792Z,51.60
2022-10-15T15:18:43.993Z,57.22
2022-10-15T15:21:16.591Z,54.95
2022-10-15T15:23:43.620Z,54.00
2022-10-15T15:26:10.062Z,56.17
2022-10-15T15:28:36.641Z,54.63
2022-10-15T15:31:06.713Z,52.95
2022-10-15T15:33:33.855Z,51.80
2022-10-15T15:36:07.426Z,50.90
2022-10-15T15:41:17.767Z,55.80
2022-10-15T15:43:45.616Z,52.28
2022-10-15T15:46:12.387Z,54.33
2022-10-15T15:48:38.803Z,51.83
2022-10-15T15:51:17.296Z,55.13
2022-10-15T15:53:43.733Z,55.33
2022-10-15T15:56:10.143Z,50.35
2022-10-15T15:58:36.608Z,56.30
2022-10-15T16:01:03.229Z,53.55
2022-10-15T16:03:29.613Z,55.50
2022-10-15T16:05:56.080Z,55.05
2022-10-15T16:08:22.570Z,51.20
2022-10-15T16:10:48.984Z,53.33
2022-10-15T16:13:15.632Z,54.05
2022-10-15T16:15:42.049Z,53.88
2022-10-15T16:18:09.237Z,55.67
2022-10-15T16:20:39.395Z,53.20
2022-10-15T16:23:05.952Z,57.80
2022-10-15T16:25:32.384Z,53.65
2022-10-15T16:28:01.701Z,54.53
2022-10-15T16:30:28.441Z,57.90
2022-10-15T16:32:55.131Z,53.85
2022-10-15T16:35:21.558Z,56.63
2022-10-15T16:37:48.211Z,63.92
2022-10-15T16:40:15.602Z,57.63
2022-10-15T16:42:42.010Z,58.88
2022-10-15T16:45:09.605Z,56.55
2022-10-15T16:47:36.009Z,53.25
2022-10-15T16:50:04.022Z,58.13
2022-10-15T16:52:30.558Z,58.80
2022-10-15T16:54:56.974Z,53.08
2022-10-15T16:57:23.416Z,55.63
2022-10-15T16:59:49.861Z,60.30
2022-10-15T17:02:16.269Z,52.95
2022-10-15T17:04:42.677Z,54.42
2022-10-15T17:07:09.152Z,59.92
2022-10-15T17:09:35.692Z,56.78
2022-10-15T17:12:02.171Z,56.42
2022-10-15T17:14:28.902Z,53.25
2022-10-15T17:16:55.324Z,53.72
2022-10-15T17:19:27.836Z,51.63
2022-10-15T17:21:57.193Z,54.65
2022-10-15T17:24:23.827Z,52.53
2022-10-15T17:26:50.328Z,62.50
2022-10-15T17:29:24.737Z,58.17
2022-10-15T17:31:53.022Z,58.70
2022-10-15T17:34:19.506Z,55.88
2022-10-15T17:36:48.285Z,52.60
2022-10-15T17:39:17.510Z,55.47
2022-10-15T17:41:44.063Z,57.67
2022-10-15T17:44:12.385Z,56.80
2022-10-15T17:46:39.290Z,58.38
2022-10-15T17:49:07.868Z,58.33
2022-10-15T17:51:34.766Z,60.67
2022-10-15T17:54:01.640Z,53.92
2022-10-15T17:56:34.370Z,56.72
2022-10-15T17:59:03.461Z,53.63
2022-10-15T18:01:56.282Z,57.50
2022-10-15T18:04:18.760Z,58.70
2022-10-15T18:06:45.445Z,63.00
2022-10-15T18:09:11.956Z,63.53
2022-10-15T18:11:38.580Z,60.45
2022-10-15T18:14:05.017Z,66.78
2022-10-15T18:16:32.213Z,59.08
2022-10-15T18:18:58.910Z,62.28
2022-10-15T18:21:27.363Z,59.90
2022-10-15T18:23:56.345Z,65.28
2022-10-15T18:26:23.098Z,66.60
2022-10-15T18:28:51.573Z,68.53
2022-10-15T18:31:18.353Z,62.58
2022-10-15T18:33:48.167Z,63.80
2022-10-15T18:36:18.754Z,66.47
2022-10-15T18:38:45.455Z,63.67
2022-10-15T18:41:23.447Z,62.17
2022-10-15T18:43:58.801Z,60.50
2022-10-15T18:46:27.499Z,61.88
2022-10-15T18:48:54.631Z,60.95
2022-10-15T18:51:22.086Z,62.92
2022-10-15T18:53:48.737Z,64.38
2022-10-15T18:56:15.292Z,65.70
2022-10-15T18:58:45.546Z,60.72
2022-10-15T19:01:13.887Z,66.30
2022-10-15T19:03:40.533Z,62.95
2022-10-15T19:06:06.941Z,64.43
2022-10-15T19:08:34.072Z,63.17
2022-10-15T19:11:05.937Z,65.15
2022-10-15T19:13:32.332Z,61.35
2022-10-15T19:16:01.505Z,62.17
2022-10-15T19:18:28.522Z,67.57
2022-10-15T19:20:55.127Z,64.80
2022-10-15T19:23:21.905Z,64.85
2022-10-15T19:25:48.346Z,61.75
2022-10-15T19:28:15.071Z,63.67
2022-10-15T19:30:41.508Z,62.13
2022-10-15T19:33:08.173Z,64.30
2022-10-15T19:35:39.973Z,64.05
2022-10-15T19:38:06.846Z,64.43
2022-10-15T19:40:38.142Z,62.50
2022-10-15T19:43:05.800Z,66.55
2022-10-15T19:45:37.303Z,65.18
2022-10-15T19:48:04.338Z,61.60
2022-10-15T19:50:30.848Z,67.18
2022-10-15T19:52:57.292Z,65.70
2022-10-15T19:55:23.730Z,68.78
2022-10-15T19:57:50.129Z,63.22
2022-10-15T20:00:23.095Z,64.88
2022-10-15T20:02:53.509Z,66.22
2022-10-15T20:05:19.979Z,66.22
2022-10-15T20:07:46.426Z,61.75
2022-10-15T20:10:13.160Z,63.53
2022-10-15T20:12:39.622Z,62.30
2022-10-15T20:15:06.770Z,66.05
2022-10-15T20:17:33.168Z,64.60
2022-10-15T20:19:59.611Z,61.17
2022-10-15T20:22:26.417Z,63.90
2022-10-15T20:24:52.966Z,60.25
2022-10-15T20:27:19.384Z,63.33
2022-10-15T20:29:45.789Z,63.00
2022-10-15T20:32:30.258Z,64.53
2022-10-15T20:35:01.102Z,58.92
2022-10-15T20:37:28.559Z,63.05
2022-10-15T20:42:21.417Z,62.47
2022-10-15T20:44:47.811Z,65.95
2022-10-15T20:47:15.660Z,62.53
2022-10-15T20:49:45.374Z,64.00
2022-10-15T20:52:13.720Z,63.10
2022-10-15T20:54:40.128Z,61.65
2022-10-15T20:57:06.574Z,60.03
2022-10-15T20:59:33.235Z,59.70
2022-10-15T21:01:59.695Z,63.63
2022-10-15T21:04:26.114Z,64.45
2022-10-15T21:06:52.553Z,61.15
2022-10-15T21:09:18.977Z,62.95
2022-10-15T21:11:46.518Z,63.15
2022-10-15T21:14:13.749Z,63.70
2022-10-15T21:16:40.799Z,62.08
2022-10-15T21:19:07.282Z,64.82
2022-10-15T21:21:33.774Z,63.97
2022-10-15T21:24:00.480Z,62.60
2022-10-15T21:26:26.912Z,60.95
2022-10-15T21:28:58.244Z,64.70
2022-10-15T21:31:26.429Z,64.18
2022-10-15T21:33:54.909Z,58.67
2022-10-15T21:36:26.968Z,65.07
2022-10-15T21:38:56.026Z,64.50
2022-10-15T21:41:23.298Z,63.88
2022-10-15T21:46:21.073Z,69.15
2022-10-15T21:48:47.948Z,66.00
2022-10-15T21:51:16.676Z,67.95
2022-10-15T21:53:43.324Z,62.78
2022-10-15T21:56:09.858Z,69.93
2022-10-15T21:58:38.174Z,62.70
2022-10-15T22:01:09.647Z,69.93
2022-10-15T22:03:36.195Z,67.45
2022-10-15T22:06:02.883Z,74.55
2022-10-15T22:08:30.059Z,69.78
2022-10-15T22:11:09.205Z,68.65
2022-10-15T22:13:36.189Z,69.40
2022-10-15T22:16:03.515Z,71.68
2022-10-15T22:18:29.918Z,67.38
2022-10-15T22:20:56.701Z,70.70
2022-10-15T22:23:26.973Z,70.35
2022-10-15T22:25:58.706Z,71.65
2022-10-15T22:28:25.668Z,69.07
2022-10-15T22:30:52.278Z,75.40
2022-10-15T22:33:18.732Z,68.38
2022-10-15T22:35:45.211Z,71.60
2022-10-15T22:38:11.629Z,71.40
2022-10-15T22:40:38.045Z,79.22
2022-10-15T22:43:04.551Z,74.72
2022-10-15T22:45:30.957Z,76.40
2022-10-15T22:47:57.358Z,70.18
2022-10-15T22:50:23.774Z,72.72
2022-10-15T22:52:50.174Z,72.25
2022-10-15T22:55:16.722Z,76.05
2022-10-15T22:57:44.083Z,74.15
2022-10-15T23:00:11.260Z,74.10
2022-10-15T23:02:37.669Z,76.40
2022-10-15T23:05:04.285Z,70.88
2022-10-15T23:07:30.726Z,74.63
2022-10-15T23:09:57.139Z,74.45
2022-10-15T23:12:23.897Z,73.13
2022-10-15T23:14:50.523Z,73.80
2022-10-15T23:17:16.986Z,74.32
2022-10-15T23:19:43.401Z,76.28
2022-10-15T23:22:09.920Z,75.70
2022-10-15T23:24:36.332Z,79.57
2022-10-15T23:27:02.838Z,77.75
2022-10-15T23:29:29.276Z,77.90
2022-10-15T23:31:55.734Z,71.97
2022-10-15T23:34:24.762Z,73.00
2022-10-15T23:36:52.029Z,80.95
2022-10-15T23:39:21.388Z,79.97
2022-10-15T23:41:47.841Z,76.63
2022-10-15T23:44:14.585Z,77.15
2022-10-15T23:46:41.247Z,74.60
2022-10-15T23:49:08.485Z,74.82
2022-10-15T23:51:35.013Z,74.07
2022-10-15T23:54:02.556Z,77.30
2022-10-15T23:56:30.182Z,77.13
2022-10-15T23:58:59.209Z,77.43
